sensor_id;sensor_type;location;lat;lon;timestamp;P1;durP1;ratioP1;P2;durP2;ratioP2
41436;SDS011;27178;49.460;10.850;2023-08-21T00:00:05;6.78;;;6.18;;
41436;SDS011;27178;49.460;10.850;2023-08-21T00:02:35;7.90;;;6.63;;
41436;SDS011;27178;49.460;10.850;2023-08-21T00:05:03;6.90;;;5.85;;
41436;SDS011;27178;49.460;10.850;2023-08-21T00:07:33;7.47;;;6.00;;
41436;SDS011;27178;49.460;10.850;2023-08-21T00:10:01;6.93;;;6.32;;
41436;SDS011;27178;49.460;10.850;2023-08-21T00:12:29;7.07;;;6.47;;
41436;SDS011;27178;49.460;10.850;2023-08-21T00:14:58;6.82;;;6.22;;
41436;SDS011;27178;49.460;10.850;2023-08-21T00:17:27;6.55;;;6.05;;
41436;SDS011;27178;49.460;10.850;2023-08-21T00:19:56;10.65;;;6.20;;
41436;SDS011;27178;49.460;10.850;2023-08-21T00:22:24;7.90;;;7.15;;
41436;SDS011;27178;49.460;10.850;2023-08-21T00:24:53;7.47;;;6.85;;
41436;SDS011;27178;49.460;10.850;2023-08-21T00:27:21;7.55;;;6.80;;
41436;SDS011;27178;49.460;10.850;2023-08-21T00:29:49;7.97;;;6.40;;
41436;SDS011;27178;49.460;10.850;2023-08-21T00:32:18;7.35;;;6.65;;
41436;SDS011;27178;49.460;10.850;2023-08-21T00:34:48;8.77;;;6.47;;
41436;SDS011;27178;49.460;10.850;2023-08-21T00:37:16;7.20;;;6.60;;
41436;SDS011;27178;49.460;10.850;2023-08-21T00:39:45;10.23;;;7.22;;
41436;SDS011;27178;49.460;10.850;2023-08-21T00:42:14;7.38;;;6.55;;
41436;SDS011;27178;49.460;10.850;2023-08-21T00:44:42;9.55;;;6.93;;
41436;SDS011;27178;49.460;10.850;2023-08-21T00:47:11;8.10;;;6.20;;
41436;SDS011;27178;49.460;10.850;2023-08-21T00:49:39;7.30;;;6.60;;
41436;SDS011;27178;49.460;10.850;2023-08-21T00:52:09;7.18;;;6.53;;
41436;SDS011;27178;49.460;10.850;2023-08-21T00:54:40;7.93;;;7.30;;
41436;SDS011;27178;49.460;10.850;2023-08-21T00:57:10;7.43;;;6.82;;
41436;SDS011;27178;49.460;10.850;2023-08-21T00:59:40;12.45;;;7.28;;
41436;SDS011;27178;49.460;10.850;2023-08-21T01:02:09;7.15;;;6.65;;
41436;SDS011;27178;49.460;10.850;2023-08-21T01:04:38;7.30;;;6.68;;
41436;SDS011;27178;49.460;10.850;2023-08-21T01:07:07;7.30;;;6.63;;
41436;SDS011;27178;49.460;10.850;2023-08-21T01:09:39;7.25;;;6.68;;
41436;SDS011;27178;49.460;10.850;2023-08-21T01:12:12;7.20;;;6.60;;
41436;SDS011;27178;49.460;10.850;2023-08-21T01:14:51;7.15;;;6.55;;
41436;SDS011;27178;49.460;10.850;2023-08-21T01:17:25;7.63;;;6.32;;
41436;SDS011;27178;49.460;10.850;2023-08-21T01:19:56;7.35;;;6.75;;
41436;SDS011;27178;49.460;10.850;2023-08-21T01:22:26;7.20;;;6.55;;
41436;SDS011;27178;49.460;10.850;2023-08-21T01:24:56;8.30;;;6.35;;
41436;SDS011;27178;49.460;10.850;2023-08-21T01:27:24;7.78;;;6.53;;
41436;SDS011;27178;49.460;10.850;2023-08-21T01:29:53;7.32;;;6.68;;
41436;SDS011;27178;49.460;10.850;2023-08-21T01:32:23;7.30;;;6.70;;
41436;SDS011;27178;49.460;10.850;2023-08-21T01:35:01;7.53;;;6.72;;
41436;SDS011;27178;49.460;10.850;2023-08-21T01:37:31;7.50;;;6.90;;
41436;SDS011;27178;49.460;10.850;2023-08-21T01:40:01;7.75;;;7.05;;
41436;SDS011;27178;49.460;10.850;2023-08-21T01:42:30;7.55;;;6.90;;
41436;SDS011;27178;49.460;10.850;2023-08-21T01:44:59;7.00;;;6.50;;
41436;SDS011;27178;49.460;10.850;2023-08-21T01:47:27;8.13;;;7.32;;
41436;SDS011;27178;49.460;10.850;2023-08-21T01:49:55;8.27;;;6.53;;
41436;SDS011;27178;49.460;10.850;2023-08-21T01:52:23;8.55;;;7.60;;
41436;SDS011;27178;49.460;10.850;2023-08-21T01:54:51;11.05;;;7.55;;
41436;SDS011;27178;49.460;10.850;2023-08-21T01:57:21;7.13;;;6.60;;
41436;SDS011;27178;49.460;10.850;2023-08-21T01:59:50;8.05;;;7.35;;
41436;SDS011;27178;49.460;10.850;2023-08-21T02:02:18;8.75;;;7.05;;
41436;SDS011;27178;49.460;10.850;2023-08-21T02:04:47;9.43;;;7.70;;
41436;SDS011;27178;49.460;10.850;2023-08-21T02:07:16;8.32;;;7.55;;
41436;SDS011;27178;49.460;10.850;2023-08-21T02:09:44;8.10;;;7.40;;
41436;SDS011;27178;49.460;10.850;2023-08-21T02:12:13;7.55;;;6.95;;
41436;SDS011;27178;49.460;10.850;2023-08-21T02:14:43;8.32;;;7.53;;
41436;SDS011;27178;49.460;10.850;2023-08-21T02:17:11;7.50;;;6.90;;
41436;SDS011;27178;49.460;10.850;2023-08-21T02:19:40;9.02;;;8.10;;
41436;SDS011;27178;49.460;10.850;2023-08-21T02:22:08;7.88;;;7.20;;
41436;SDS011;27178;49.460;10.850;2023-08-21T02:24:37;9.55;;;7.45;;
41436;SDS011;27178;49.460;10.850;2023-08-21T02:27:05;9.55;;;7.88;;
41436;SDS011;27178;49.460;10.850;2023-08-21T02:29:34;9.73;;;8.10;;
41436;SDS011;27178;49.460;10.850;2023-08-21T02:32:04;8.68;;;7.88;;
41436;SDS011;27178;49.460;10.850;2023-08-21T02:34:33;8.43;;;7.72;;
41436;SDS011;27178;49.460;10.850;2023-08-21T02:37:01;9.38;;;8.30;;
41436;SDS011;27178;49.460;10.850;2023-08-21T02:39:31;9.02;;;8.13;;
41436;SDS011;27178;49.460;10.850;2023-08-21T02:42:00;9.40;;;8.50;;
41436;SDS011;27178;49.460;10.850;2023-08-21T02:44:28;8.73;;;8.02;;
41436;SDS011;27178;49.460;10.850;2023-08-21T02:46:57;9.00;;;8.20;;
41436;SDS011;27178;49.460;10.850;2023-08-21T02:49:27;9.35;;;8.52;;
41436;SDS011;27178;49.460;10.850;2023-08-21T02:51:55;9.40;;;8.48;;
41436;SDS011;27178;49.460;10.850;2023-08-21T02:54:23;9.75;;;8.85;;
41436;SDS011;27178;49.460;10.850;2023-08-21T02:56:52;9.60;;;8.70;;
41436;SDS011;27178;49.460;10.850;2023-08-21T02:59:20;9.88;;;9.07;;
41436;SDS011;27178;49.460;10.850;2023-08-21T03:01:49;10.15;;;9.00;;
41436;SDS011;27178;49.460;10.850;2023-08-21T03:04:17;9.88;;;8.98;;
41436;SDS011;27178;49.460;10.850;2023-08-21T03:06:47;10.02;;;9.23;;
41436;SDS011;27178;49.460;10.850;2023-08-21T03:09:15;10.13;;;9.32;;
41436;SDS011;27178;49.460;10.850;2023-08-21T03:11:44;9.65;;;8.90;;
41436;SDS011;27178;49.460;10.850;2023-08-21T03:14:12;9.65;;;8.75;;
41436;SDS011;27178;49.460;10.850;2023-08-21T03:16:41;9.85;;;8.95;;
41436;SDS011;27178;49.460;10.850;2023-08-21T03:19:10;10.88;;;9.98;;
41436;SDS011;27178;49.460;10.850;2023-08-21T03:21:38;10.52;;;9.55;;
41436;SDS011;27178;49.460;10.850;2023-08-21T03:24:08;10.68;;;9.80;;
41436;SDS011;27178;49.460;10.850;2023-08-21T03:26:37;10.73;;;9.82;;
41436;SDS011;27178;49.460;10.850;2023-08-21T03:29:05;9.88;;;8.93;;
41436;SDS011;27178;49.460;10.850;2023-08-21T03:31:34;10.60;;;9.52;;
41436;SDS011;27178;49.460;10.850;2023-08-21T03:34:02;10.45;;;9.45;;
41436;SDS011;27178;49.460;10.850;2023-08-21T03:36:30;9.45;;;8.57;;
41436;SDS011;27178;49.460;10.850;2023-08-21T03:38:59;10.45;;;9.55;;
41436;SDS011;27178;49.460;10.850;2023-08-21T03:41:29;11.80;;;8.98;;
41436;SDS011;27178;49.460;10.850;2023-08-21T03:43:58;10.48;;;9.35;;
41436;SDS011;27178;49.460;10.850;2023-08-21T03:46:27;10.80;;;10.00;;
41436;SDS011;27178;49.460;10.850;2023-08-21T03:48:55;10.85;;;9.95;;
41436;SDS011;27178;49.460;10.850;2023-08-21T03:51:24;10.80;;;9.90;;
41436;SDS011;27178;49.460;10.850;2023-08-21T03:53:52;11.38;;;10.38;;
41436;SDS011;27178;49.460;10.850;2023-08-21T03:56:21;11.60;;;10.57;;
41436;SDS011;27178;49.460;10.850;2023-08-21T03:58:51;10.27;;;9.38;;
41436;SDS011;27178;49.460;10.850;2023-08-21T04:01:19;10.27;;;9.50;;
41436;SDS011;27178;49.460;10.850;2023-08-21T04:03:48;9.70;;;8.90;;
41436;SDS011;27178;49.460;10.850;2023-08-21T04:06:17;11.43;;;10.52;;
41436;SDS011;27178;49.460;10.850;2023-08-21T04:08:45;10.75;;;9.73;;
41436;SDS011;27178;49.460;10.850;2023-08-21T04:11:14;10.68;;;9.88;;
41436;SDS011;27178;49.460;10.850;2023-08-21T04:13:43;10.68;;;9.68;;
41436;SDS011;27178;49.460;10.850;2023-08-21T04:16:14;11.05;;;10.05;;
41436;SDS011;27178;49.460;10.850;2023-08-21T04:18:44;10.55;;;9.70;;
41436;SDS011;27178;49.460;10.850;2023-08-21T04:21:12;12.18;;;11.02;;
41436;SDS011;27178;49.460;10.850;2023-08-21T04:23:41;11.35;;;10.32;;
41436;SDS011;27178;49.460;10.850;2023-08-21T04:26:11;12.32;;;11.20;;
41436;SDS011;27178;49.460;10.850;2023-08-21T04:28:39;10.93;;;10.02;;
41436;SDS011;27178;49.460;10.850;2023-08-21T04:31:08;11.93;;;10.93;;
41436;SDS011;27178;49.460;10.850;2023-08-21T04:33:38;12.27;;;11.25;;
41436;SDS011;27178;49.460;10.850;2023-08-21T04:36:06;11.43;;;10.40;;
41436;SDS011;27178;49.460;10.850;2023-08-21T04:38:35;10.73;;;9.73;;
41436;SDS011;27178;49.460;10.850;2023-08-21T04:41:07;11.15;;;10.23;;
41436;SDS011;27178;49.460;10.850;2023-08-21T04:43:37;10.77;;;9.85;;
41436;SDS011;27178;49.460;10.850;2023-08-21T04:46:05;14.20;;;11.63;;
41436;SDS011;27178;49.460;10.850;2023-08-21T04:48:34;12.98;;;11.43;;
41436;SDS011;27178;49.460;10.850;2023-08-21T04:51:03;12.02;;;10.82;;
41436;SDS011;27178;49.460;10.850;2023-08-21T04:53:32;11.85;;;10.85;;
41436;SDS011;27178;49.460;10.850;2023-08-21T04:56:00;12.23;;;11.23;;
41436;SDS011;27178;49.460;10.850;2023-08-21T04:58:30;11.25;;;10.25;;
41436;SDS011;27178;49.460;10.850;2023-08-21T05:00:58;12.63;;;11.45;;
41436;SDS011;27178;49.460;10.850;2023-08-21T05:03:27;11.75;;;10.77;;
41436;SDS011;27178;49.460;10.850;2023-08-21T05:05:55;13.48;;;11.52;;
41436;SDS011;27178;49.460;10.850;2023-08-21T05:08:25;12.15;;;10.98;;
41436;SDS011;27178;49.460;10.850;2023-08-21T05:10:54;11.90;;;10.95;;
41436;SDS011;27178;49.460;10.850;2023-08-21T05:13:23;12.50;;;11.32;;
41436;SDS011;27178;49.460;10.850;2023-08-21T05:15:52;12.77;;;11.52;;
41436;SDS011;27178;49.460;10.850;2023-08-21T05:18:21;13.18;;;11.98;;
41436;SDS011;27178;49.460;10.850;2023-08-21T05:20:50;13.15;;;12.05;;
41436;SDS011;27178;49.460;10.850;2023-08-21T05:23:21;12.77;;;11.68;;
41436;SDS011;27178;49.460;10.850;2023-08-21T05:25:51;13.52;;;12.20;;
41436;SDS011;27178;49.460;10.850;2023-08-21T05:28:19;12.65;;;11.45;;
41436;SDS011;27178;49.460;10.850;2023-08-21T05:30:54;13.60;;;12.30;;
41436;SDS011;27178;49.460;10.850;2023-08-21T05:33:22;12.88;;;11.77;;
41436;SDS011;27178;49.460;10.850;2023-08-21T05:35:50;12.70;;;11.70;;
41436;SDS011;27178;49.460;10.850;2023-08-21T05:38:18;12.60;;;11.48;;
41436;SDS011;27178;49.460;10.850;2023-08-21T05:40:47;13.30;;;11.90;;
41436;SDS011;27178;49.460;10.850;2023-08-21T05:43:17;12.57;;;11.45;;
41436;SDS011;27178;49.460;10.850;2023-08-21T05:45:45;12.85;;;11.75;;
41436;SDS011;27178;49.460;10.850;2023-08-21T05:48:14;13.10;;;11.80;;
41436;SDS011;27178;49.460;10.850;2023-08-21T05:50:43;13.50;;;12.40;;
41436;SDS011;27178;49.460;10.850;2023-08-21T05:53:11;13.50;;;12.13;;
41436;SDS011;27178;49.460;10.850;2023-08-21T05:55:40;12.65;;;11.57;;
41436;SDS011;27178;49.460;10.850;2023-08-21T05:58:09;12.57;;;11.52;;
41436;SDS011;27178;49.460;10.850;2023-08-21T06:00:39;14.23;;;12.93;;
41436;SDS011;27178;49.460;10.850;2023-08-21T06:03:07;12.70;;;11.50;;
41436;SDS011;27178;49.460;10.850;2023-08-21T06:05:36;13.57;;;12.48;;
41436;SDS011;27178;49.460;10.850;2023-08-21T06:08:04;14.02;;;12.82;;
41436;SDS011;27178;49.460;10.850;2023-08-21T06:10:35;13.13;;;11.88;;
41436;SDS011;27178;49.460;10.850;2023-08-21T06:13:04;14.27;;;13.00;;
41436;SDS011;27178;49.460;10.850;2023-08-21T06:15:32;13.27;;;12.18;;
41436;SDS011;27178;49.460;10.850;2023-08-21T06:18:02;14.40;;;13.15;;
41436;SDS011;27178;49.460;10.850;2023-08-21T06:20:31;13.68;;;12.55;;
41436;SDS011;27178;49.460;10.850;2023-08-21T06:22:59;14.40;;;12.82;;
41436;SDS011;27178;49.460;10.850;2023-08-21T06:25:27;13.40;;;12.20;;
41436;SDS011;27178;49.460;10.850;2023-08-21T06:27:57;13.82;;;12.63;;
41436;SDS011;27178;49.460;10.850;2023-08-21T06:30:25;14.00;;;12.88;;
41436;SDS011;27178;49.460;10.850;2023-08-21T06:32:54;13.00;;;11.80;;
41436;SDS011;27178;49.460;10.850;2023-08-21T06:35:24;14.10;;;12.88;;
41436;SDS011;27178;49.460;10.850;2023-08-21T06:37:52;14.23;;;12.95;;
41436;SDS011;27178;49.460;10.850;2023-08-21T06:40:21;14.13;;;12.23;;
41436;SDS011;27178;49.460;10.850;2023-08-21T06:42:50;13.80;;;12.45;;
41436;SDS011;27178;49.460;10.850;2023-08-21T06:45:19;14.88;;;13.60;;
41436;SDS011;27178;49.460;10.850;2023-08-21T06:47:47;14.88;;;13.40;;
41436;SDS011;27178;49.460;10.850;2023-08-21T06:50:17;13.70;;;12.60;;
41436;SDS011;27178;49.460;10.850;2023-08-21T06:52:46;13.40;;;12.20;;
41436;SDS011;27178;49.460;10.850;2023-08-21T06:55:14;14.02;;;12.80;;
41436;SDS011;27178;49.460;10.850;2023-08-21T06:57:43;14.15;;;12.93;;
41436;SDS011;27178;49.460;10.850;2023-08-21T07:00:12;12.98;;;11.85;;
41436;SDS011;27178;49.460;10.850;2023-08-21T07:02:41;14.13;;;12.93;;
41436;SDS011;27178;49.460;10.850;2023-08-21T07:05:09;13.80;;;12.55;;
41436;SDS011;27178;49.460;10.850;2023-08-21T07:07:38;12.48;;;11.48;;
41436;SDS011;27178;49.460;10.850;2023-08-21T07:10:08;13.32;;;12.23;;
41436;SDS011;27178;49.460;10.850;2023-08-21T07:12:37;14.02;;;12.75;;
41436;SDS011;27178;49.460;10.850;2023-08-21T07:15:06;13.25;;;12.15;;
41436;SDS011;27178;49.460;10.850;2023-08-21T07:17:35;14.30;;;13.00;;
41436;SDS011;27178;49.460;10.850;2023-08-21T07:20:04;12.70;;;11.70;;
41436;SDS011;27178;49.460;10.850;2023-08-21T07:22:34;12.60;;;11.60;;
41436;SDS011;27178;49.460;10.850;2023-08-21T07:25:03;12.23;;;11.13;;
41436;SDS011;27178;49.460;10.850;2023-08-21T07:27:33;13.98;;;12.68;;
41436;SDS011;27178;49.460;10.850;2023-08-21T07:30:02;13.57;;;12.38;;
41436;SDS011;27178;49.460;10.850;2023-08-21T07:32:32;12.43;;;11.40;;
41436;SDS011;27178;49.460;10.850;2023-08-21T07:35:00;12.85;;;11.82;;
41436;SDS011;27178;49.460;10.850;2023-08-21T07:37:29;14.18;;;13.00;;
41436;SDS011;27178;49.460;10.850;2023-08-21T07:39:57;12.43;;;11.43;;
41436;SDS011;27178;49.460;10.850;2023-08-21T07:42:26;13.38;;;12.35;;
41436;SDS011;27178;49.460;10.850;2023-08-21T07:44:56;14.18;;;12.98;;
41436;SDS011;27178;49.460;10.850;2023-08-21T07:47:26;14.55;;;13.35;;
41436;SDS011;27178;49.460;10.850;2023-08-21T07:49:55;15.48;;;14.18;;
41436;SDS011;27178;49.460;10.850;2023-08-21T07:52:24;14.00;;;12.90;;
41436;SDS011;27178;49.460;10.850;2023-08-21T07:54:52;14.40;;;13.13;;
41436;SDS011;27178;49.460;10.850;2023-08-21T07:57:20;13.75;;;12.55;;
41436;SDS011;27178;49.460;10.850;2023-08-21T07:59:49;12.90;;;11.90;;
41436;SDS011;27178;49.460;10.850;2023-08-21T08:02:21;12.60;;;11.60;;
41436;SDS011;27178;49.460;10.850;2023-08-21T08:04:50;14.48;;;11.27;;
41436;SDS011;27178;49.460;10.850;2023-08-21T08:07:20;12.43;;;11.43;;
41436;SDS011;27178;49.460;10.850;2023-08-21T08:09:49;12.43;;;11.43;;
41436;SDS011;27178;49.460;10.850;2023-08-21T08:12:18;11.95;;;10.90;;
41436;SDS011;27178;49.460;10.850;2023-08-21T08:14:46;11.50;;;10.60;;
41436;SDS011;27178;49.460;10.850;2023-08-21T08:17:15;10.80;;;10.00;;
41436;SDS011;27178;49.460;10.850;2023-08-21T08:19:45;12.15;;;11.05;;
41436;SDS011;27178;49.460;10.850;2023-08-21T08:22:13;11.98;;;10.90;;
41436;SDS011;27178;49.460;10.850;2023-08-21T08:24:41;12.48;;;11.30;;
41436;SDS011;27178;49.460;10.850;2023-08-21T08:27:10;11.50;;;10.60;;
41436;SDS011;27178;49.460;10.850;2023-08-21T08:29:38;12.57;;;11.50;;
41436;SDS011;27178;49.460;10.850;2023-08-21T08:32:07;11.43;;;10.32;;
41436;SDS011;27178;49.460;10.850;2023-08-21T08:34:35;11.20;;;10.27;;
41436;SDS011;27178;49.460;10.850;2023-08-21T08:37:05;12.05;;;11.07;;
41436;SDS011;27178;49.460;10.850;2023-08-21T08:39:34;12.60;;;11.50;;
41436;SDS011;27178;49.460;10.850;2023-08-21T08:42:03;11.32;;;10.45;;
41436;SDS011;27178;49.460;10.850;2023-08-21T08:44:33;11.30;;;10.23;;
41436;SDS011;27178;49.460;10.850;2023-08-21T08:47:03;12.18;;;11.13;;
41436;SDS011;27178;49.460;10.850;2023-08-21T08:49:32;11.60;;;10.70;;
41436;SDS011;27178;49.460;10.850;2023-08-21T08:52:00;11.85;;;10.95;;
41436;SDS011;27178;49.460;10.850;2023-08-21T08:54:31;12.18;;;11.18;;
41436;SDS011;27178;49.460;10.850;2023-08-21T08:57:02;10.98;;;10.07;;
41436;SDS011;27178;49.460;10.850;2023-08-21T08:59:30;11.32;;;10.27;;
41436;SDS011;27178;49.460;10.850;2023-08-21T09:02:00;11.32;;;10.32;;
41436;SDS011;27178;49.460;10.850;2023-08-21T09:04:28;11.60;;;10.70;;
41436;SDS011;27178;49.460;10.850;2023-08-21T09:07:05;11.32;;;10.30;;
41436;SDS011;27178;49.460;10.850;2023-08-21T09:09:38;10.85;;;9.93;;
41436;SDS011;27178;49.460;10.850;2023-08-21T09:12:09;10.15;;;9.35;;
41436;SDS011;27178;49.460;10.850;2023-08-21T09:14:38;10.63;;;9.82;;
41436;SDS011;27178;49.460;10.850;2023-08-21T09:17:07;10.48;;;9.68;;
41436;SDS011;27178;49.460;10.850;2023-08-21T09:19:36;11.38;;;10.32;;
41436;SDS011;27178;49.460;10.850;2023-08-21T09:22:08;10.95;;;10.05;;
41436;SDS011;27178;49.460;10.850;2023-08-21T09:24:38;11.80;;;10.80;;
41436;SDS011;27178;49.460;10.850;2023-08-21T09:27:15;10.63;;;9.80;;
41436;SDS011;27178;49.460;10.850;2023-08-21T09:29:44;10.73;;;9.93;;
41436;SDS011;27178;49.460;10.850;2023-08-21T09:32:14;10.35;;;9.35;;
41436;SDS011;27178;49.460;10.850;2023-08-21T09:34:42;10.68;;;9.68;;
41436;SDS011;27178;49.460;10.850;2023-08-21T09:37:12;10.95;;;10.13;;
41436;SDS011;27178;49.460;10.850;2023-08-21T09:39:42;10.38;;;9.52;;
41436;SDS011;27178;49.460;10.850;2023-08-21T09:42:11;10.88;;;9.90;;
41436;SDS011;27178;49.460;10.850;2023-08-21T09:44:39;9.65;;;8.85;;
41436;SDS011;27178;49.460;10.850;2023-08-21T09:47:10;8.43;;;7.72;;
41436;SDS011;27178;49.460;10.850;2023-08-21T09:49:39;9.63;;;8.77;;
41436;SDS011;27178;49.460;10.850;2023-08-21T09:52:08;8.35;;;7.65;;
41436;SDS011;27178;49.460;10.850;2023-08-21T09:54:38;8.75;;;7.82;;
41436;SDS011;27178;49.460;10.850;2023-08-21T09:57:08;7.90;;;7.20;;
41436;SDS011;27178;49.460;10.850;2023-08-21T09:59:39;8.10;;;7.50;;
41436;SDS011;27178;49.460;10.850;2023-08-21T10:02:09;8.60;;;7.90;;
41436;SDS011;27178;49.460;10.850;2023-08-21T10:04:37;7.45;;;6.68;;
41436;SDS011;27178;49.460;10.850;2023-08-21T10:07:09;8.25;;;7.45;;
41436;SDS011;27178;49.460;10.850;2023-08-21T10:09:40;7.47;;;6.88;;
41436;SDS011;27178;49.460;10.850;2023-08-21T10:12:11;7.85;;;6.93;;
41436;SDS011;27178;49.460;10.850;2023-08-21T10:14:42;7.38;;;6.88;;
41436;SDS011;27178;49.460;10.850;2023-08-21T10:17:10;7.82;;;7.05;;
41436;SDS011;27178;49.460;10.850;2023-08-21T10:19:38;7.45;;;6.80;;
41436;SDS011;27178;49.460;10.850;2023-08-21T10:22:07;6.50;;;6.00;;
41436;SDS011;27178;49.460;10.850;2023-08-21T10:24:36;7.53;;;6.93;;
41436;SDS011;27178;49.460;10.850;2023-08-21T10:27:06;6.72;;;6.22;;
41436;SDS011;27178;49.460;10.850;2023-08-21T10:29:39;6.95;;;6.28;;
41436;SDS011;27178;49.460;10.850;2023-08-21T10:32:09;6.75;;;5.70;;
41436;SDS011;27178;49.460;10.850;2023-08-21T10:34:38;6.22;;;5.72;;
41436;SDS011;27178;49.460;10.850;2023-08-21T10:37:07;6.78;;;5.78;;
41436;SDS011;27178;49.460;10.850;2023-08-21T10:39:54;5.95;;;5.55;;
41436;SDS011;27178;49.460;10.850;2023-08-21T10:42:36;6.90;;;6.20;;
41436;SDS011;27178;49.460;10.850;2023-08-21T10:45:12;6.18;;;5.68;;
41436;SDS011;27178;49.460;10.850;2023-08-21T10:47:40;6.20;;;5.70;;
41436;SDS011;27178;49.460;10.850;2023-08-21T10:50:09;7.88;;;6.25;;
41436;SDS011;27178;49.460;10.850;2023-08-21T10:52:38;6.50;;;5.90;;
41436;SDS011;27178;49.460;10.850;2023-08-21T10:55:09;9.77;;;6.15;;
41436;SDS011;27178;49.460;10.850;2023-08-21T10:57:37;6.50;;;6.00;;
41436;SDS011;27178;49.460;10.850;2023-08-21T11:00:08;5.53;;;5.07;;
41436;SDS011;27178;49.460;10.850;2023-08-21T11:02:39;6.00;;;5.50;;
41436;SDS011;27178;49.460;10.850;2023-08-21T11:05:09;7.00;;;6.15;;
41436;SDS011;27178;49.460;10.850;2023-08-21T11:07:39;5.95;;;5.45;;
41436;SDS011;27178;49.460;10.850;2023-08-21T11:10:11;6.47;;;5.75;;
41436;SDS011;27178;49.460;10.850;2023-08-21T11:12:48;6.18;;;5.35;;
41436;SDS011;27178;49.460;10.850;2023-08-21T11:15:17;5.78;;;5.22;;
41436;SDS011;27178;49.460;10.850;2023-08-21T11:17:54;5.97;;;5.35;;
41436;SDS011;27178;49.460;10.850;2023-08-21T11:20:27;6.10;;;5.53;;
41436;SDS011;27178;49.460;10.850;2023-08-21T11:22:56;6.10;;;5.53;;
41436;SDS011;27178;49.460;10.850;2023-08-21T11:25:26;7.63;;;5.60;;
41436;SDS011;27178;49.460;10.850;2023-08-21T11:27:54;5.35;;;4.95;;
41436;SDS011;27178;49.460;10.850;2023-08-21T11:30:22;5.70;;;5.18;;
41436;SDS011;27178;49.460;10.850;2023-08-21T11:33:05;5.40;;;4.63;;
41436;SDS011;27178;49.460;10.850;2023-08-21T11:35:34;5.45;;;4.95;;
41436;SDS011;27178;49.460;10.850;2023-08-21T11:38:03;5.60;;;5.15;;
41436;SDS011;27178;49.460;10.850;2023-08-21T11:40:35;5.07;;;4.60;;
41436;SDS011;27178;49.460;10.850;2023-08-21T11:43:04;4.93;;;4.55;;
41436;SDS011;27178;49.460;10.850;2023-08-21T11:45:34;5.00;;;4.50;;
41436;SDS011;27178;49.460;10.850;2023-08-21T11:48:23;4.78;;;4.38;;
41436;SDS011;27178;49.460;10.850;2023-08-21T11:51:03;5.15;;;4.70;;
41436;SDS011;27178;49.460;10.850;2023-08-21T11:53:32;5.43;;;4.43;;
41436;SDS011;27178;49.460;10.850;2023-08-21T11:56:08;4.90;;;4.45;;
41436;SDS011;27178;49.460;10.850;2023-08-21T11:58:38;4.60;;;4.22;;
41436;SDS011;27178;49.460;10.850;2023-08-21T12:01:06;5.82;;;4.28;;
41436;SDS011;27178;49.460;10.850;2023-08-21T12:03:38;4.63;;;4.28;;
41436;SDS011;27178;49.460;10.850;2023-08-21T12:06:08;4.68;;;4.13;;
41436;SDS011;27178;49.460;10.850;2023-08-21T12:08:37;4.53;;;4.22;;
41436;SDS011;27178;49.460;10.850;2023-08-21T12:11:06;4.75;;;4.35;;
41436;SDS011;27178;49.460;10.850;2023-08-21T12:13:35;5.20;;;4.38;;
41436;SDS011;27178;49.460;10.850;2023-08-21T12:16:03;5.45;;;4.30;;
41436;SDS011;27178;49.460;10.850;2023-08-21T12:18:32;5.25;;;4.30;;
41436;SDS011;27178;49.460;10.850;2023-08-21T12:21:02;4.32;;;3.92;;
41436;SDS011;27178;49.460;10.850;2023-08-21T12:23:33;4.55;;;4.18;;
41436;SDS011;27178;49.460;10.850;2023-08-21T12:26:01;5.82;;;4.15;;
41436;SDS011;27178;49.460;10.850;2023-08-21T12:28:30;4.25;;;3.92;;
41436;SDS011;27178;49.460;10.850;2023-08-21T12:30:58;4.85;;;4.30;;
41436;SDS011;27178;49.460;10.850;2023-08-21T12:33:27;5.43;;;3.97;;
41436;SDS011;27178;49.460;10.850;2023-08-21T12:35:55;4.63;;;4.22;;
41436;SDS011;27178;49.460;10.850;2023-08-21T12:38:25;5.30;;;4.70;;
41436;SDS011;27178;49.460;10.850;2023-08-21T12:41:02;4.70;;;4.30;;
41436;SDS011;27178;49.460;10.850;2023-08-21T12:43:30;4.43;;;4.03;;
41436;SDS011;27178;49.460;10.850;2023-08-21T12:45:59;4.60;;;4.20;;
41436;SDS011;27178;49.460;10.850;2023-08-21T12:48:27;4.15;;;3.75;;
41436;SDS011;27178;49.460;10.850;2023-08-21T12:50:57;4.45;;;4.05;;
41436;SDS011;27178;49.460;10.850;2023-08-21T12:53:27;4.53;;;4.15;;
41436;SDS011;27178;49.460;10.850;2023-08-21T12:55:55;5.82;;;4.10;;
41436;SDS011;27178;49.460;10.850;2023-08-21T12:58:23;5.05;;;4.43;;
41436;SDS011;27178;49.460;10.850;2023-08-21T13:00:52;4.70;;;4.20;;
41436;SDS011;27178;49.460;10.850;2023-08-21T13:03:20;4.57;;;3.97;;
41436;SDS011;27178;49.460;10.850;2023-08-21T13:05:51;4.53;;;4.13;;
41436;SDS011;27178;49.460;10.850;2023-08-21T13:08:19;5.22;;;4.28;;
41436;SDS011;27178;49.460;10.850;2023-08-21T13:10:50;4.55;;;3.90;;
41436;SDS011;27178;49.460;10.850;2023-08-21T13:13:18;5.88;;;3.97;;
41436;SDS011;27178;49.460;10.850;2023-08-21T13:15:46;4.88;;;4.38;;
41436;SDS011;27178;49.460;10.850;2023-08-21T13:18:15;4.93;;;4.15;;
41436;SDS011;27178;49.460;10.850;2023-08-21T13:20:43;4.50;;;4.07;;
41436;SDS011;27178;49.460;10.850;2023-08-21T13:23:12;5.63;;;4.18;;
41436;SDS011;27178;49.460;10.850;2023-08-21T13:25:40;4.47;;;4.07;;
41436;SDS011;27178;49.460;10.850;2023-08-21T13:28:10;4.28;;;3.97;;
41436;SDS011;27178;49.460;10.850;2023-08-21T13:30:38;4.90;;;4.50;;
41436;SDS011;27178;49.460;10.850;2023-08-21T13:33:07;4.05;;;3.70;;
41436;SDS011;27178;49.460;10.850;2023-08-21T13:35:35;4.25;;;3.95;;
41436;SDS011;27178;49.460;10.850;2023-08-21T13:38:03;4.30;;;4.00;;
41436;SDS011;27178;49.460;10.850;2023-08-21T13:40:32;4.28;;;3.97;;
41436;SDS011;27178;49.460;10.850;2023-08-21T13:43:00;4.30;;;3.90;;
41436;SDS011;27178;49.460;10.850;2023-08-21T13:45:31;4.53;;;3.72;;
41436;SDS011;27178;49.460;10.850;2023-08-21T13:47:59;4.57;;;4.18;;
41436;SDS011;27178;49.460;10.850;2023-08-21T13:50:28;5.20;;;4.07;;
41436;SDS011;27178;49.460;10.850;2023-08-21T13:52:56;4.72;;;4.32;;
41436;SDS011;27178;49.460;10.850;2023-08-21T13:55:26;4.45;;;4.00;;
41436;SDS011;27178;49.460;10.850;2023-08-21T13:57:54;5.38;;;3.78;;
41436;SDS011;27178;49.460;10.850;2023-08-21T14:00:23;4.32;;;3.97;;
41436;SDS011;27178;49.460;10.850;2023-08-21T14:02:53;4.78;;;4.20;;
41436;SDS011;27178;49.460;10.850;2023-08-21T14:05:21;5.05;;;4.47;;
41436;SDS011;27178;49.460;10.850;2023-08-21T14:07:50;4.03;;;3.63;;
41436;SDS011;27178;49.460;10.850;2023-08-21T14:10:18;4.40;;;4.00;;
41436;SDS011;27178;49.460;10.850;2023-08-21T14:12:47;6.43;;;4.15;;
41436;SDS011;27178;49.460;10.850;2023-08-21T14:15:15;5.65;;;4.35;;
41436;SDS011;27178;49.460;10.850;2023-08-21T14:17:44;4.22;;;3.85;;
41436;SDS011;27178;49.460;10.850;2023-08-21T14:20:14;7.78;;;3.65;;
41436;SDS011;27178;49.460;10.850;2023-08-21T14:22:43;5.32;;;4.18;;
41436;SDS011;27178;49.460;10.850;2023-08-21T14:25:14;4.22;;;3.90;;
41436;SDS011;27178;49.460;10.850;2023-08-21T14:27:44;4.38;;;3.97;;
41436;SDS011;27178;49.460;10.850;2023-08-21T14:30:15;4.50;;;4.10;;
41436;SDS011;27178;49.460;10.850;2023-08-21T14:32:43;4.70;;;4.40;;
41436;SDS011;27178;49.460;10.850;2023-08-21T14:35:12;4.00;;;3.70;;